Time;durP1;ratioP1;P1;durP2;ratioP2;P2;SDS_P1;SDS_P2;PMS_P1;PMS_P2;Temp;Humidity;BMP_temperature;BMP_pressure;BME280_temperature;BME280_humidity;BME280_pressure;Samples;Min_cycle;Max_cycle;Signal;HPM_P1;HPM_P2
2023/06/02 00:01:00;;;;;;;0.10;0.10;;;;;;;;;;5058781;28;20248;-74
2023/06/02 00:03:30;;;;;;;0.10;0.10;;;;;;;;;;5072392;28;20193;-75
2023/06/02 00:05:57;;;;;;;0.13;0.13;;;;;;;;;;5059667;28;20243;-75
2023/06/02 00:08:23;;;;;;;0.10;0.10;;;;;;;;;;5076164;28;20259;-75
2023/06/02 00:10:50;;;;;;;0.10;0.10;;;;;;;;;;5062177;28;20555;-75
2023/06/02 00:13:18;;;;;;;0.10;0.10;;;;;;;;;;5077053;28;20265;-75
2023/06/02 00:15:44;;;;;;;0.10;0.10;;;;;;;;;;5061514;28;20590;-74
2023/06/02 00:18:10;;;;;;;0.10;0.10;;;;;;;;;;5077441;28;20215;-75
2023/06/02 00:20:37;;;;;;;0.10;0.10;;;;;;;;;;5060123;28;20240;-74
2023/06/02 00:23:03;;;;;;;0.10;0.10;;;;;;;;;;5078576;28;20199;-74
2023/06/02 00:25:30;;;;;;;0.10;0.10;;;;;;;;;;5059395;28;20246;-74
2023/06/02 00:27:57;;;;;;;0.10;0.10;;;;;;;;;;5078841;28;20205;-75
2023/06/02 00:30:24;;;;;;;0.10;0.10;;;;;;;;;;5058479;28;20234;-74
2023/06/02 00:32:51;;;;;;;0.10;0.10;;;;;;;;;;5079664;28;20194;-75
2023/06/02 00:35:17;;;;;;;0.10;0.10;;;;;;;;;;5057756;28;20379;-75
2023/06/02 00:37:44;;;;;;;0.10;0.10;;;;;;;;;;5080481;28;20195;-74
2023/06/02 00:40:10;;;;;;;0.40;0.40;;;;;;;;;;5056777;28;20271;-73
2023/06/02 00:42:37;;;;;;;0.10;0.10;;;;;;;;;;5081290;28;20194;-74
2023/06/02 00:45:04;;;;;;;0.10;0.10;;;;;;;;;;5066580;28;20243;-74
2023/06/02 00:47:31;;;;;;;0.10;0.10;;;;;;;;;;5071372;28;20266;-74
2023/06/02 00:49:58;;;;;;;0.10;0.10;;;;;;;;;;5066409;28;20304;-74
2023/06/02 00:52:25;;;;;;;0.10;0.10;;;;;;;;;;5071404;28;20239;-74
2023/06/02 00:54:51;;;;;;;0.20;0.20;;;;;;;;;;5066331;28;20431;-75
2023/06/02 00:57:17;;;;;;;0.10;0.10;;;;;;;;;;5071253;28;20305;-74
2023/06/02 00:59:44;;;;;;;0.57;0.57;;;;;;;;;;5065972;28;20224;-75
2023/06/02 01:02:13;;;;;;;0.10;0.10;;;;;;;;;;5071284;28;20243;-75
2023/06/02 01:04:41;;;;;;;0.10;0.10;;;;;;;;;;5065989;28;20226;-74
2023/06/02 01:07:08;;;;;;;0.10;0.10;;;;;;;;;;5071049;28;20242;-75
2023/06/02 01:09:35;;;;;;;0.10;0.10;;;;;;;;;;5066062;28;20278;-74
2023/06/02 01:12:01;;;;;;;0.00;0.00;;;;;;;;;;5070182;28;20303;-75
2023/06/02 01:14:28;;;;;;;0.10;0.10;;;;;;;;;;5066572;28;20413;-75
2023/06/02 01:16:55;;;;;;;0.10;0.10;;;;;;;;;;5069055;28;20261;-74
2023/06/02 01:19:21;;;;;;;0.10;0.10;;;;;;;;;;5067484;28;20256;-75
2023/06/02 01:21:57;;;;;;;0.10;0.10;;;;;;;;;;5068241;28;20309;-74
2023/06/02 01:24:30;;;;;;;0.10;0.10;;;;;;;;;;5067122;28;20399;-75
2023/06/02 01:26:58;;;;;;;0.10;0.10;;;;;;;;;;5069273;28;20244;-74
2023/06/02 01:29:24;;;;;;;0.10;0.10;;;;;;;;;;5066569;28;20260;-74
2023/06/02 01:31:53;;;;;;;0.10;0.10;;;;;;;;;;5068423;28;20262;-74
2023/06/02 01:34:22;;;;;;;0.10;0.10;;;;;;;;;;5067432;28;20279;-75
2023/06/02 01:36:51;;;;;;;0.10;0.10;;;;;;;;;;5068085;28;20291;-75
2023/06/02 01:39:18;;;;;;;0.10;0.10;;;;;;;;;;5067508;28;20398;-75
2023/06/02 01:41:46;;;;;;;0.10;0.10;;;;;;;;;;5067404;28;20235;-75
2023/06/02 01:44:13;;;;;;;0.10;0.10;;;;;;;;;;5067888;28;20253;-74
2023/06/02 01:46:40;;;;;;;0.10;0.10;;;;;;;;;;5066713;28;20582;-75
2023/06/02 01:49:13;;;;;;;0.00;0.00;;;;;;;;;;5068468;28;20205;-74
2023/06/02 01:51:39;;;;;;;0.10;0.10;;;;;;;;;;5066574;28;20420;-74
2023/06/02 01:54:06;;;;;;;0.10;0.10;;;;;;;;;;5068788;28;20513;-74
2023/06/02 01:56:32;;;;;;;0.10;0.10;;;;;;;;;;5065832;28;20259;-74
2023/06/02 01:59:00;;;;;;;0.10;0.10;;;;;;;;;;5069452;28;20257;-75
2023/06/02 02:01:27;;;;;;;0.10;0.10;;;;;;;;;;5064750;28;20304;-74
2023/06/02 02:03:53;;;;;;;0.10;0.10;;;;;;;;;;5070051;28;20401;-74
2023/06/02 02:06:24;;;;;;;0.10;0.10;;;;;;;;;;5063737;28;20260;-75
2023/06/02 02:08:50;;;;;;;0.10;0.10;;;;;;;;;;5070225;28;20208;-74
2023/06/02 02:11:17;;;;;;;0.10;0.10;;;;;;;;;;5063205;28;20442;-74
2023/06/02 02:13:43;;;;;;;0.10;0.10;;;;;;;;;;5070996;28;20205;-74
2023/06/02 02:16:11;;;;;;;0.10;0.10;;;;;;;;;;5062379;28;20577;-75
2023/06/02 02:18:37;;;;;;;0.10;0.10;;;;;;;;;;5072069;28;20246;-75
2023/06/02 02:21:04;;;;;;;0.10;0.10;;;;;;;;;;5061429;28;20258;-75
2023/06/02 02:23:30;;;;;;;0.10;0.10;;;;;;;;;;5072777;28;20253;-74
2023/06/02 02:25:57;;;;;;;0.10;0.10;;;;;;;;;;5060293;28;20250;-74
2023/06/02 02:28:23;;;;;;;0.10;0.10;;;;;;;;;;5073008;28;20247;-74
2023/06/02 02:30:49;;;;;;;0.10;0.10;;;;;;;;;;5058920;28;20314;-74
2023/06/02 02:33:19;;;;;;;0.10;0.10;;;;;;;;;;5074066;28;20278;-75
2023/06/02 02:35:46;;;;;;;0.10;0.10;;;;;;;;;;5059015;28;20472;-73
2023/06/02 02:38:13;;;;;;;0.10;0.10;;;;;;;;;;5074696;28;20527;-74
2023/06/02 02:40:39;;;;;;;0.10;0.10;;;;;;;;;;5057815;28;20289;-75
2023/06/02 02:43:05;;;;;;;0.10;0.10;;;;;;;;;;5075152;28;20248;-75
2023/06/02 02:45:32;;;;;;;0.20;0.20;;;;;;;;;;5056873;28;20241;-74
2023/06/02 02:47:58;;;;;;;14.03;12.73;;;;;;;;;;5076334;28;20277;-75
2023/06/02 02:50:26;;;;;;;0.10;0.10;;;;;;;;;;5056051;28;20457;-74
2023/06/02 02:52:53;;;;;;;0.10;0.10;;;;;;;;;;5077155;28;20359;-75
2023/06/02 02:55:19;;;;;;;0.10;0.10;;;;;;;;;;5055323;28;20431;-74
2023/06/02 02:57:45;;;;;;;0.10;0.10;;;;;;;;;;5077846;28;20236;-75
2023/06/02 03:00:13;;;;;;;0.10;0.10;;;;;;;;;;5054221;28;20541;-74
2023/06/02 03:02:40;;;;;;;0.10;0.10;;;;;;;;;;5078615;28;20205;-74
2023/06/02 03:05:08;;;;;;;0.10;0.10;;;;;;;;;;5063592;28;20243;-74
2023/06/02 03:07:35;;;;;;;0.10;0.10;;;;;;;;;;5052476;28;20434;-74
2023/06/02 03:10:02;;;;;;;0.10;0.10;;;;;;;;;;5063911;28;20233;-74
2023/06/02 03:12:29;;;;;;;0.10;0.10;;;;;;;;;;5068962;28;20570;-75
2023/06/02 03:14:55;;;;;;;0.10;0.10;;;;;;;;;;5063818;28;20245;-74
2023/06/02 03:17:22;;;;;;;4.37;1.80;;;;;;;;;;5069008;28;20254;-74
2023/06/02 03:19:49;;;;;;;0.10;0.10;;;;;;;;;;5063429;28;20213;-74
2023/06/02 03:22:15;;;;;;;0.10;0.10;;;;;;;;;;5068866;28;20251;-74
2023/06/02 03:24:43;;;;;;;0.10;0.10;;;;;;;;;;5063362;28;20236;-74
2023/06/02 03:27:13;;;;;;;0.10;0.10;;;;;;;;;;5068847;28;20317;-75
2023/06/02 03:29:39;;;;;;;0.10;0.10;;;;;;;;;;5063238;28;20237;-74
2023/06/02 03:32:09;;;;;;;0.10;0.10;;;;;;;;;;5067140;28;20245;-74
2023/06/02 03:34:35;;;;;;;0.10;0.10;;;;;;;;;;5063328;28;20214;-75
2023/06/02 03:37:02;;;;;;;0.10;0.10;;;;;;;;;;5068008;28;20265;-75
2023/06/02 03:39:28;;;;;;;0.10;0.10;;;;;;;;;;5063902;28;20547;-74
2023/06/02 03:41:56;;;;;;;0.20;0.20;;;;;;;;;;5068951;28;20309;-74
2023/06/02 03:44:22;;;;;;;0.10;0.10;;;;;;;;;;5068886;28;20208;-75
2023/06/02 03:46:49;;;;;;;0.10;0.10;;;;;;;;;;5070261;28;20480;-74
2023/06/02 03:49:15;;;;;;;0.10;0.10;;;;;;;;;;5069633;28;20211;-74
2023/06/02 03:51:43;;;;;;;0.10;0.10;;;;;;;;;;5069237;28;20439;-74
2023/06/02 03:54:09;;;;;;;0.10;0.10;;;;;;;;;;5070581;28;20435;-74
2023/06/02 03:56:35;;;;;;;0.10;0.10;;;;;;;;;;5067075;28;20458;-74
2023/06/02 03:59:03;;;;;;;0.37;0.37;;;;;;;;;;5072500;28;20567;-74
2023/06/02 04:01:30;;;;;;;0.10;0.10;;;;;;;;;;5067452;28;20549;-74
2023/06/02 04:03:56;;;;;;;0.10;0.10;;;;;;;;;;5072006;28;20265;-75
2023/06/02 04:06:22;;;;;;;0.10;0.10;;;;;;;;;;5066112;28;20271;-74
2023/06/02 04:08:49;;;;;;;0.10;0.10;;;;;;;;;;5072883;28;20229;-74
2023/06/02 04:11:16;;;;;;;0.10;0.10;;;;;;;;;;5065461;28;20237;-74
2023/06/02 04:13:42;;;;;;;0.10;0.10;;;;;;;;;;5073417;28;20273;-75
2023/06/02 04:16:10;;;;;;;0.10;0.10;;;;;;;;;;5064330;28;20250;-74
2023/06/02 04:18:37;;;;;;;0.10;0.10;;;;;;;;;;5074499;28;20459;-75
2023/06/02 04:21:04;;;;;;;0.10;0.10;;;;;;;;;;5063744;28;20314;-74
2023/06/02 04:23:30;;;;;;;0.10;0.10;;;;;;;;;;5075081;28;20269;-74
2023/06/02 04:25:56;;;;;;;0.10;0.10;;;;;;;;;;5062797;28;20277;-74
2023/06/02 04:28:23;;;;;;;0.10;0.10;;;;;;;;;;5075745;28;20280;-74
2023/06/02 04:30:53;;;;;;;0.10;0.10;;;;;;;;;;5061379;28;20250;-74
2023/06/02 04:33:21;;;;;;;0.10;0.10;;;;;;;;;;5076098;28;20261;-74
2023/06/02 04:35:48;;;;;;;0.10;0.10;;;;;;;;;;5061454;28;20258;-74
2023/06/02 04:38:14;;;;;;;0.10;0.10;;;;;;;;;;5076879;28;20279;-75
2023/06/02 04:40:41;;;;;;;0.10;0.10;;;;;;;;;;5059930;28;20254;-74
2023/06/02 04:43:08;;;;;;;0.13;0.13;;;;;;;;;;5077853;28;20206;-74
2023/06/02 04:45:34;;;;;;;0.10;0.10;;;;;;;;;;5059339;28;20277;-74
2023/06/02 04:48:01;;;;;;;0.10;0.10;;;;;;;;;;5078323;28;20206;-74
2023/06/02 04:50:29;;;;;;;0.10;0.10;;;;;;;;;;5066328;28;20506;-74
2023/06/02 04:52:55;;;;;;;0.10;0.10;;;;;;;;;;5066415;28;20265;-74
2023/06/02 04:55:22;;;;;;;0.20;0.20;;;;;;;;;;5070546;28;20222;-74
2023/06/02 04:57:48;;;;;;;0.10;0.10;;;;;;;;;;5066211;28;20550;-74
2023/06/02 05:00:15;;;;;;;0.10;0.10;;;;;;;;;;5071234;28;20296;-74
2023/06/02 05:02:41;;;;;;;0.10;0.10;;;;;;;;;;5065184;28;20242;-73
2023/06/02 05:05:08;;;;;;;0.10;0.10;;;;;;;;;;5071988;28;20458;-74
2023/06/02 05:07:36;;;;;;;0.10;0.10;;;;;;;;;;5064245;28;20309;-74
2023/06/02 05:10:02;;;;;;;0.10;0.10;;;;;;;;;;5072529;28;20217;-74
2023/06/02 05:12:29;;;;;;;0.10;0.10;;;;;;;;;;5063353;28;20314;-74
2023/06/02 05:14:55;;;;;;;0.10;0.10;;;;;;;;;;5073207;28;20216;-74
2023/06/02 05:17:23;;;;;;;0.10;0.10;;;;;;;;;;5062461;28;20241;-75
2023/06/02 05:19:49;;;;;;;0.10;0.10;;;;;;;;;;5074142;28;20243;-74
2023/06/02 05:22:15;;;;;;;0.10;0.10;;;;;;;;;;5061608;28;20241;-74
2023/06/02 05:24:43;;;;;;;0.10;0.10;;;;;;;;;;5074723;28;20274;-74
2023/06/02 05:27:09;;;;;;;0.10;0.10;;;;;;;;;;5060890;28;20356;-74
2023/06/02 05:29:36;;;;;;;0.10;0.10;;;;;;;;;;5075343;28;20284;-74
2023/06/02 05:32:02;;;;;;;0.10;0.10;;;;;;;;;;5059150;28;20261;-74
2023/06/02 05:34:28;;;;;;;0.10;0.10;;;;;;;;;;5076778;28;20275;-74
2023/06/02 05:36:55;;;;;;;0.10;0.10;;;;;;;;;;5058582;28;20248;-74
2023/06/02 05:39:21;;;;;;;0.10;0.10;;;;;;;;;;5077135;28;20206;-74
2023/06/02 05:41:49;;;;;;;0.20;0.20;;;;;;;;;;5058691;28;20476;-74
2023/06/02 05:44:15;;;;;;;0.10;0.10;;;;;;;;;;5077310;28;20195;-74
2023/06/02 05:46:42;;;;;;;0.10;0.10;;;;;;;;;;5067083;28;20307;-75
2023/06/02 05:49:08;;;;;;;2.00;1.90;;;;;;;;;;5068310;28;20217;-75
2023/06/02 05:51:34;;;;;;;0.10;0.10;;;;;;;;;;5066010;28;20243;-75
2023/06/02 05:54:01;;;;;;;0.10;0.10;;;;;;;;;;5069165;28;20282;-74
2023/06/02 05:56:27;;;;;;;0.10;0.10;;;;;;;;;;5064968;28;20317;-75
2023/06/02 05:58:55;;;;;;;0.10;0.10;;;;;;;;;;5069884;28;20297;-75
2023/06/02 06:01:21;;;;;;;0.10;0.10;;;;;;;;;;5063830;28;20325;-75
2023/06/02 06:03:48;;;;;;;0.10;0.10;;;;;;;;;;5070284;28;20459;-75
2023/06/02 06:06:14;;;;;;;0.10;0.10;;;;;;;;;;5063244;28;20253;-74
2023/06/02 06:08:40;;;;;;;0.10;0.10;;;;;;;;;;5071725;28;20395;-74
2023/06/02 06:11:07;;;;;;;0.10;0.10;;;;;;;;;;5062128;28;20486;-74
2023/06/02 06:13:33;;;;;;;0.10;0.10;;;;;;;;;;5072436;28;20295;-74
2023/06/02 06:16:01;;;;;;;0.10;0.10;;;;;;;;;;5061039;28;20254;-75
2023/06/02 06:18:27;;;;;;;0.10;0.10;;;;;;;;;;5073131;28;20271;-75
2023/06/02 06:20:54;;;;;;;0.10;0.10;;;;;;;;;;5059955;28;20313;-74
2023/06/02 06:23:20;;;;;;;0.10;0.10;;;;;;;;;;5074165;28;20245;-75
2023/06/02 06:25:46;;;;;;;0.10;0.10;;;;;;;;;;5059063;28;20242;-74
2023/06/02 06:28:13;;;;;;;0.10;0.10;;;;;;;;;;5074460;28;20225;-74
2023/06/02 06:30:40;;;;;;;0.10;0.10;;;;;;;;;;5058313;28;20437;-75
2023/06/02 06:33:08;;;;;;;0.10;0.10;;;;;;;;;;5075625;28;20234;-75
2023/06/02 06:35:34;;;;;;;0.10;0.10;;;;;;;;;;5057510;28;20240;-74
2023/06/02 06:38:01;;;;;;;0.10;0.10;;;;;;;;;;5076318;28;20242;-75
2023/06/02 06:40:28;;;;;;;1.40;1.40;;;;;;;;;;5056508;28;20255;-74
2023/06/02 06:42:54;;;;;;;0.10;0.10;;;;;;;;;;5076995;28;20201;-75
2023/06/02 06:45:20;;;;;;;0.10;0.10;;;;;;;;;;5055345;28;20247;-74
2023/06/02 06:47:47;;;;;;;0.10;0.10;;;;;;;;;;5077855;28;20240;-74
2023/06/02 06:50:15;;;;;;;0.30;0.30;;;;;;;;;;5054219;28;20273;-74
2023/06/02 06:52:41;;;;;;;0.10;0.10;;;;;;;;;;5078497;28;20240;-74
2023/06/02 06:55:08;;;;;;;0.10;0.10;;;;;;;;;;5058815;28;20264;-73
2023/06/02 06:57:34;;;;;;;0.17;0.17;;;;;;;;;;5079176;28;20284;-76
2023/06/02 07:00:02;;;;;;;0.10;0.10;;;;;;;;;;5063692;28;20227;-75
2023/06/02 07:02:29;;;;;;;0.10;0.10;;;;;;;;;;5069154;28;20306;-75
2023/06/02 07:04:55;;;;;;;0.10;0.10;;;;;;;;;;5063919;28;20212;-75
2023/06/02 07:07:23;;;;;;;0.10;0.10;;;;;;;;;;5069113;28;20485;-75
2023/06/02 07:09:49;;;;;;;4.00;3.80;;;;;;;;;;5063783;28;20530;-75
2023/06/02 07:12:16;;;;;;;0.10;0.10;;;;;;;;;;5068936;28;20237;-74
2023/06/02 07:14:42;;;;;;;0.67;0.67;;;;;;;;;;5063462;28;20214;-74
2023/06/02 07:17:09;;;;;;;0.10;0.10;;;;;;;;;;5068968;28;20299;-74
2023/06/02 07:19:35;;;;;;;0.10;0.10;;;;;;;;;;5063764;28;20269;-74
2023/06/02 07:22:02;;;;;;;0.10;0.10;;;;;;;;;;5068263;28;20309;-75
2023/06/02 07:24:30;;;;;;;0.00;0.00;;;;;;;;;;5064450;28;20207;-74
2023/06/02 07:26:57;;;;;;;2.27;2.17;;;;;;;;;;5067381;28;20303;-75
2023/06/02 07:29:24;;;;;;;0.10;0.10;;;;;;;;;;5064476;28;20220;-75
2023/06/02 07:31:50;;;;;;;0.00;0.00;;;;;;;;;;5066262;28;20252;-76
2023/06/02 07:34:17;;;;;;;0.10;0.10;;;;;;;;;;5065975;28;20459;-76
2023/06/02 07:36:44;;;;;;;0.10;0.10;;;;;;;;;;5065588;28;20474;-76
2023/06/02 07:39:11;;;;;;;0.10;0.10;;;;;;;;;;5066548;28;20204;-75
2023/06/02 07:41:38;;;;;;;0.10;0.10;;;;;;;;;;5064618;28;20518;-75
2023/06/02 07:44:05;;;;;;;0.10;0.10;;;;;;;;;;5067276;28;20213;-75
2023/06/02 07:46:33;;;;;;;0.10;0.10;;;;;;;;;;5063795;28;20306;-75
2023/06/02 07:49:00;;;;;;;0.10;0.10;;;;;;;;;;5067609;28;20273;-75
2023/06/02 07:51:26;;;;;;;0.10;0.10;;;;;;;;;;5063265;28;20265;-77
2023/06/02 07:53:53;;;;;;;0.00;0.00;;;;;;;;;;5068295;28;20253;-76
2023/06/02 07:56:20;;;;;;;0.10;0.10;;;;;;;;;;5062991;28;20245;-87
2023/06/02 07:58:48;;;;;;;0.10;0.10;;;;;;;;;;5069356;28;20550;-75
2023/06/02 08:01:14;;;;;;;0.10;0.10;;;;;;;;;;5061481;28;20240;-74
2023/06/02 08:03:41;;;;;;;0.10;0.10;;;;;;;;;;5069809;28;20229;-75
2023/06/02 08:06:07;;;;;;;2.97;2.87;;;;;;;;;;5060706;28;20301;-75
2023/06/02 08:08:34;;;;;;;0.10;0.10;;;;;;;;;;5071117;28;20521;-76
2023/06/02 08:11:00;;;;;;;0.10;0.10;;;;;;;;;;5059694;28;20244;-77
2023/06/02 08:13:27;;;;;;;0.10;0.10;;;;;;;;;;5071763;28;20301;-76
2023/06/02 08:15:54;;;;;;;0.10;0.10;;;;;;;;;;5058696;28;20301;-75
2023/06/02 08:18:21;;;;;;;0.00;0.00;;;;;;;;;;5072418;28;20206;-76
2023/06/02 08:20:47;;;;;;;2.10;2.10;;;;;;;;;;5057707;28;20306;-76
2023/06/02 08:23:13;;;;;;;0.10;0.10;;;;;;;;;;5073225;28;20240;-76
2023/06/02 08:25:40;;;;;;;0.10;0.10;;;;;;;;;;5057074;28;20262;-71
2023/06/02 08:28:07;;;;;;;0.20;0.20;;;;;;;;;;5076294;28;20203;-72
2023/06/02 08:30:33;;;;;;;0.10;0.10;;;;;;;;;;5059599;28;20244;-72
2023/06/02 08:33:03;;;;;;;0.10;0.10;;;;;;;;;;5078867;28;20344;-73
2023/06/02 08:35:30;;;;;;;0.10;0.10;;;;;;;;;;5059315;28;20256;-72
2023/06/02 08:37:57;;;;;;;0.10;0.10;;;;;;;;;;5079206;28;20208;-72
2023/06/02 08:40:25;;;;;;;0.10;0.10;;;;;;;;;;5058451;28;20245;-72
2023/06/02 08:42:51;;;;;;;0.10;0.10;;;;;;;;;;5079719;28;20208;-72
2023/06/02 08:45:22;;;;;;;0.10;0.10;;;;;;;;;;5057712;28;20214;-74
2023/06/02 08:47:50;;;;;;;0.07;0.07;;;;;;;;;;5080168;28;20209;-70
2023/06/02 08:50:19;;;;;;;0.10;0.10;;;;;;;;;;5057122;28;20277;-70
2023/06/02 08:52:46;;;;;;;0.10;0.10;;;;;;;;;;5080461;28;20230;-73
2023/06/02 08:55:13;;;;;;;0.10;0.10;;;;;;;;;;5056411;28;20238;-72
2023/06/02 08:57:39;;;;;;;0.10;0.10;;;;;;;;;;5080710;28;20239;-72
2023/06/02 09:00:07;;;;;;;0.10;0.10;;;;;;;;;;5066190;28;20420;-70
2023/06/02 09:02:33;;;;;;;0.10;0.10;;;;;;;;;;5054682;28;20276;-69
2023/06/02 09:05:00;;;;;;;0.10;0.10;;;;;;;;;;5066158;28;20205;-71
2023/06/02 09:07:27;;;;;;;0.10;0.10;;;;;;;;;;5071444;28;20306;-71
2023/06/02 09:09:55;;;;;;;0.10;0.10;;;;;;;;;;5065786;28;20216;-70
2023/06/02 09:12:22;;;;;;;2.20;2.05;;;;;;;;;;5071231;28;20239;-71
2023/06/02 09:14:49;;;;;;;0.00;0.00;;;;;;;;;;5065720;28;20273;-74
2023/06/02 09:17:26;;;;;;;0.10;0.10;;;;;;;;;;5071130;28;20304;-71
2023/06/02 09:19:53;;;;;;;0.10;0.10;;;;;;;;;;5065881;28;20292;-68
2023/06/02 09:22:19;;;;;;;0.05;0.05;;;;;;;;;;5071051;28;20303;-68
2023/06/02 09:24:47;;;;;;;0.10;0.10;;;;;;;;;;5065637;28;20204;-67
2023/06/02 09:27:14;;;;;;;0.10;0.10;;;;;;;;;;5071004;28;20309;-67
2023/06/02 09:29:40;;;;;;;3.40;1.17;;;;;;;;;;5065344;28;20309;-68
2023/06/02 09:32:09;;;;;;;0.10;0.10;;;;;;;;;;5070691;28;20646;-67
2023/06/02 09:34:36;;;;;;;0.10;0.10;;;;;;;;;;5065312;28;20258;-67
2023/06/02 09:37:07;;;;;;;0.10;0.10;;;;;;;;;;5069943;28;20246;-67
2023/06/02 09:39:34;;;;;;;0.10;0.10;;;;;;;;;;5065598;28;20500;-68
2023/06/02 09:42:02;;;;;;;0.10;0.10;;;;;;;;;;5069565;28;20250;-68
2023/06/02 09:44:28;;;;;;;0.10;0.10;;;;;;;;;;5066082;28;20445;-68
2023/06/02 09:46:56;;;;;;;1.75;0.38;;;;;;;;;;5068774;28;20271;-68
2023/06/02 09:49:22;;;;;;;0.10;0.10;;;;;;;;;;5066643;28;20199;-69
2023/06/02 09:51:50;;;;;;;0.10;0.10;;;;;;;;;;5067944;28;20499;-67
2023/06/02 09:54:16;;;;;;;0.00;0.00;;;;;;;;;;5067249;28;20541;-68
2023/06/02 09:56:43;;;;;;;0.05;0.05;;;;;;;;;;5067066;28;20307;-68
2023/06/02 09:59:10;;;;;;;0.10;0.10;;;;;;;;;;5068012;28;20230;-68
2023/06/02 10:01:37;;;;;;;3.30;3.10;;;;;;;;;;5066035;28;20304;-69
2023/06/02 10:04:05;;;;;;;0.30;0.30;;;;;;;;;;5069059;28;20306;-67
2023/06/02 10:06:35;;;;;;;0.03;0.03;;;;;;;;;;5065467;28;20307;-68
2023/06/02 10:09:11;;;;;;;0.10;0.10;;;;;;;;;;5069144;28;20402;-68
2023/06/02 10:11:44;;;;;;;0.00;0.00;;;;;;;;;;5065839;28;20242;-72
2023/06/02 10:14:18;;;;;;;0.65;0.65;;;;;;;;;;5067661;28;20225;-68
2023/06/02 10:16:52;;;;;;;0.10;0.10;;;;;;;;;;5066884;28;20308;-68
2023/06/02 10:19:45;;;;;;;0.00;0.00;;;;;;;;;;5066535;28;20200;-68
2023/06/02 10:22:15;;;;;;;0.10;0.10;;;;;;;;;;5069898;28;20523;-68
2023/06/02 10:24:47;;;;;;;0.10;0.10;;;;;;;;;;5064746;28;20534;-68
2023/06/02 10:27:23;;;;;;;0.00;0.00;;;;;;;;;;5069815;28;20240;-70
2023/06/02 10:29:53;;;;;;;0.05;0.05;;;;;;;;;;5064177;28;20220;-70
2023/06/02 10:32:20;;;;;;;0.10;0.10;;;;;;;;;;5069614;28;20308;-70
2023/06/02 10:34:48;;;;;;;0.05;0.05;;;;;;;;;;5064419;28;20418;-71
2023/06/02 10:37:16;;;;;;;0.03;0.03;;;;;;;;;;5069556;28;20276;-70
2023/06/02 10:39:47;;;;;;;0.10;0.10;;;;;;;;;;5064443;28;20232;-69
2023/06/02 10:42:14;;;;;;;0.10;0.10;;;;;;;;;;5069584;28;20264;-69
2023/06/02 10:44:40;;;;;;;0.10;0.10;;;;;;;;;;5064361;28;20270;-70
2023/06/02 10:47:30;;;;;;;0.03;0.03;;;;;;;;;;5069151;28;20244;-70
2023/06/02 10:49:59;;;;;;;0.00;0.00;;;;;;;;;;5007702;28;20215;-69
2023/06/02 10:52:26;;;;;;;0.10;0.10;;;;;;;;;;5069392;28;20241;-69
2023/06/02 10:55:11;;;;;;;0.08;0.08;;;;;;;;;;5064052;28;20561;-69
2023/06/02 10:57:49;;;;;;;0.10;0.10;;;;;;;;;;5052552;28;20228;-72
2023/06/02 11:00:31;;;;;;;0.10;0.10;;;;;;;;;;5054315;28;20296;-68
2023/06/02 11:02:57;;;;;;;0.10;0.10;;;;;;;;;;5075663;28;20217;-68
2023/06/02 11:05:25;;;;;;;0.00;0.00;;;;;;;;;;5055730;28;20206;-72
2023/06/02 11:08:07;;;;;;;0.10;0.10;;;;;;;;;;5077114;28;20215;-72
2023/06/02 11:10:51;;;;;;;0.10;0.10;;;;;;;;;;5056647;28;20499;-72
2023/06/02 11:13:17;;;;;;;0.00;0.00;;;;;;;;;;5073474;28;20300;-72
2023/06/02 11:16:06;;;;;;;0.10;0.10;;;;;;;;;;5058277;28;20321;-72
2023/06/02 11:18:42;;;;;;;0.45;0.45;;;;;;;;;;5071416;28;20194;-72
2023/06/02 11:21:18;;;;;;;0.00;0.00;;;;;;;;;;5061091;28;20362;-72
2023/06/02 11:23:44;;;;;;;0.10;0.10;;;;;;;;;;5069911;28;20191;-72
2023/06/02 11:26:12;;;;;;;0.10;0.10;;;;;;;;;;5061431;28;20258;-72
2023/06/02 11:28:38;;;;;;;0.03;0.03;;;;;;;;;;5070694;28;20477;-72
2023/06/02 11:31:05;;;;;;;0.10;0.10;;;;;;;;;;5060722;28;20546;-72
2023/06/02 11:33:33;;;;;;;0.10;0.10;;;;;;;;;;5071618;28;20237;-72
2023/06/02 11:35:59;;;;;;;0.20;0.20;;;;;;;;;;5059796;28;20240;-72
2023/06/02 11:38:32;;;;;;;0.03;0.03;;;;;;;;;;5072110;28;20275;-72
2023/06/02 11:41:08;;;;;;;0.10;0.10;;;;;;;;;;5059821;28;20460;-73
2023/06/02 11:43:34;;;;;;;0.00;0.00;;;;;;;;;;5070947;28;20191;-72
2023/06/02 11:46:04;;;;;;;0.10;0.10;;;;;;;;;;5060051;28;20590;-72
2023/06/02 11:48:31;;;;;;;0.10;0.10;;;;;;;;;;5071667;28;20364;-72
2023/06/02 11:50:57;;;;;;;0.03;0.03;;;;;;;;;;5059462;28;20257;-72
2023/06/02 11:53:24;;;;;;;0.00;0.00;;;;;;;;;;5072096;28;20223;-72
2023/06/02 11:55:52;;;;;;;0.10;0.10;;;;;;;;;;5058535;28;20569;-72
2023/06/02 11:58:19;;;;;;;0.00;0.00;;;;;;;;;;5073207;28;20234;-73
2023/06/02 12:00:46;;;;;;;0.10;0.10;;;;;;;;;;5057451;28;20241;-72
2023/06/02 12:03:14;;;;;;;0.10;0.10;;;;;;;;;;5076782;28;20278;-73
2023/06/02 12:05:43;;;;;;;3.17;3.00;;;;;;;;;;5061284;28;20250;-72
2023/06/02 12:08:14;;;;;;;0.10;0.10;;;;;;;;;;5077618;28;20217;-72
2023/06/02 12:10:41;;;;;;;0.10;0.10;;;;;;;;;;5061141;28;20640;-72
2023/06/02 12:13:09;;;;;;;0.10;0.10;;;;;;;;;;5078177;28;20541;-72
2023/06/02 12:15:37;;;;;;;0.10;0.10;;;;;;;;;;5060146;28;20241;-72
2023/06/02 12:18:04;;;;;;;0.03;0.03;;;;;;;;;;5078676;28;20238;-72
2023/06/02 12:20:38;;;;;;;0.10;0.10;;;;;;;;;;5059678;28;20246;-72
2023/06/02 12:23:04;;;;;;;0.00;0.00;;;;;;;;;;5078418;28;20273;-72
2023/06/02 12:25:30;;;;;;;0.00;0.00;;;;;;;;;;5059403;28;20255;-72
2023/06/02 12:28:04;;;;;;;0.10;0.10;;;;;;;;;;5079164;28;20237;-72
2023/06/02 12:30:33;;;;;;;0.22;0.22;;;;;;;;;;5059591;28;20255;-72
2023/06/02 12:33:05;;;;;;;0.10;0.10;;;;;;;;;;5078978;28;20212;-72
2023/06/02 12:35:31;;;;;;;0.00;0.00;;;;;;;;;;5060642;28;20286;-72
2023/06/02 12:37:58;;;;;;;0.10;0.10;;;;;;;;;;5078875;28;20276;-72
2023/06/02 12:40:24;;;;;;;0.00;0.00;;;;;;;;;;5058371;28;20236;-73
2023/06/02 12:42:50;;;;;;;0.00;0.00;;;;;;;;;;5079765;28;20238;-72
2023/06/02 12:45:17;;;;;;;0.10;0.10;;;;;;;;;;5057215;28;20239;-73
2023/06/02 12:47:44;;;;;;;0.00;0.00;;;;;;;;;;5080845;28;20281;-72
2023/06/02 12:50:11;;;;;;;0.10;0.10;;;;;;;;;;5056548;28;20245;-72
2023/06/02 12:52:37;;;;;;;0.10;0.10;;;;;;;;;;5081496;28;20433;-72
2023/06/02 12:55:04;;;;;;;0.05;0.05;;;;;;;;;;5066326;28;20225;-72
2023/06/02 12:57:30;;;;;;;0.00;0.00;;;;;;;;;;5071608;28;20323;-73
2023/06/02 12:59:57;;;;;;;0.10;0.10;;;;;;;;;;5066227;28;20297;-73
2023/06/02 13:02:24;;;;;;;0.10;0.10;;;;;;;;;;5071401;28;20279;-74
2023/06/02 13:04:51;;;;;;;0.10;0.10;;;;;;;;;;5065934;28;20268;-72
2023/06/02 13:07:18;;;;;;;0.10;0.10;;;;;;;;;;5071385;28;20258;-72
2023/06/02 13:09:44;;;;;;;0.10;0.10;;;;;;;;;;5065823;28;20276;-72
2023/06/02 13:12:10;;;;;;;0.10;0.10;;;;;;;;;;5071319;28;20547;-72
2023/06/02 13:14:37;;;;;;;0.00;0.00;;;;;;;;;;5065548;28;20473;-72
2023/06/02 13:17:05;;;;;;;0.10;0.10;;;;;;;;;;5070507;28;20507;-72
2023/06/02 13:19:31;;;;;;;0.05;0.05;;;;;;;;;;5066246;28;20248;-72
2023/06/02 13:21:59;;;;;;;0.10;0.10;;;;;;;;;;5069453;28;20313;-72
2023/06/02 13:24:25;;;;;;;0.10;0.10;;;;;;;;;;5067062;28;20277;-72
2023/06/02 13:26:53;;;;;;;0.00;0.00;;;;;;;;;;5068830;28;20303;-73
2023/06/02 13:29:19;;;;;;;0.10;0.10;;;;;;;;;;5067071;28;20214;-73
2023/06/02 13:31:46;;;;;;;0.10;0.10;;;;;;;;;;5067867;28;20273;-72
2023/06/02 13:34:12;;;;;;;0.00;0.00;;;;;;;;;;5068355;28;20550;-72
2023/06/02 13:36:38;;;;;;;0.10;0.10;;;;;;;;;;5066579;28;20301;-72
2023/06/02 13:39:07;;;;;;;0.00;0.00;;;;;;;;;;5068944;28;20273;-72
2023/06/02 13:41:34;;;;;;;0.00;0.00;;;;;;;;;;5066088;28;20241;-72
2023/06/02 13:44:00;;;;;;;0.05;0.05;;;;;;;;;;5069396;28;20202;-72
2023/06/02 13:46:27;;;;;;;0.05;0.05;;;;;;;;;;5065219;28;20249;-73
2023/06/02 13:48:53;;;;;;;0.10;0.10;;;;;;;;;;5070618;28;20227;-75
2023/06/02 13:51:19;;;;;;;0.10;0.10;;;;;;;;;;5064193;28;20241;-73
2023/06/02 13:53:46;;;;;;;0.08;0.08;;;;;;;;;;5071101;28;20206;-71
2023/06/02 13:56:14;;;;;;;0.10;0.10;;;;;;;;;;5063033;28;20382;-72
2023/06/02 13:58:41;;;;;;;0.00;0.00;;;;;;;;;;5072040;28;20227;-72
2023/06/02 14:01:07;;;;;;;0.00;0.00;;;;;;;;;;5062305;28;20439;-72
2023/06/02 14:03:33;;;;;;;0.10;0.10;;;;;;;;;;5072905;28;20438;-73
2023/06/02 14:06:00;;;;;;;0.00;0.00;;;;;;;;;;5061373;28;20242;-72
2023/06/02 14:08:26;;;;;;;0.10;0.10;;;;;;;;;;5073393;28;20278;-72
2023/06/02 14:10:52;;;;;;;0.10;0.10;;;;;;;;;;5060133;28;20304;-72
2023/06/02 14:13:20;;;;;;;0.00;0.00;;;;;;;;;;5074194;28;20232;-72
2023/06/02 14:15:47;;;;;;;0.00;0.00;;;;;;;;;;5059343;28;20446;-72
2023/06/02 14:18:13;;;;;;;1.77;1.65;;;;;;;;;;5075157;28;20250;-72
2023/06/02 14:20:39;;;;;;;0.10;0.10;;;;;;;;;;5058526;28;20249;-72
2023/06/02 14:23:06;;;;;;;0.10;0.10;;;;;;;;;;5076041;28;20242;-72
2023/06/02 14:25:33;;;;;;;0.00;0.00;;;;;;;;;;5056809;28;20448;-72
2023/06/02 14:27:59;;;;;;;0.03;0.03;;;;;;;;;;5076668;28;20212;-72
2023/06/02 14:30:27;;;;;;;0.00;0.00;;;;;;;;;;5056315;28;20227;-72
2023/06/02 14:32:53;;;;;;;0.10;0.10;;;;;;;;;;5077587;28;20214;-73
2023/06/02 14:35:19;;;;;;;0.00;0.00;;;;;;;;;;5055286;28;20262;-72
2023/06/02 14:37:46;;;;;;;0.00;0.00;;;;;;;;;;5078244;28;20239;-73
2023/06/02 14:40:12;;;;;;;0.08;0.08;;;;;;;;;;5054742;28;20237;-74
2023/06/02 14:42:39;;;;;;;0.00;0.00;;;;;;;;;;5079199;28;20454;-72
2023/06/02 14:45:06;;;;;;;0.00;0.00;;;;;;;;;;5064374;28;20547;-72